createdAt,value
2017-10-07T00:00:10.647Z,97
2017-10-07T00:01:13.069Z,97
2017-10-07T00:02:15.497Z,97
2017-10-07T00:03:17.923Z,97
2017-10-07T00:04:20.351Z,97
2017-10-07T00:05:22.784Z,97
2017-10-07T00:06:25.216Z,97
2017-10-07T00:07:27.640Z,97
2017-10-07T00:08:30.404Z,97
2017-10-07T00:09:32.828Z,97
2017-10-07T00:10:35.255Z,97
2017-10-07T00:11:37.715Z,97
2017-10-07T00:12:40.146Z,97
2017-10-07T00:13:42.566Z,97
2017-10-07T00:14:44.997Z,97
2017-10-07T00:15:47.428Z,97
2017-10-07T00:16:49.849Z,97
2017-10-07T00:17:52.280Z,97
2017-10-07T00:18:54.698Z,97
2017-10-07T00:19:57.465Z,97
2017-10-07T00:20:59.898Z,97
2017-10-07T00:22:02.663Z,97
2017-10-07T00:23:05.097Z,97
2017-10-07T00:24:07.513Z,97
2017-10-07T00:25:09.944Z,97
2017-10-07T00:26:12.383Z,97
2017-10-07T00:27:14.804Z,97
2017-10-07T00:28:17.228Z,97
2017-10-07T00:29:19.657Z,97
2017-10-07T00:30:22.086Z,97
2017-10-07T00:31:24.519Z,97
2017-10-07T00:32:26.948Z,97
2017-10-07T00:33:29.360Z,97
2017-10-07T00:34:32.134Z,97
2017-10-07T00:35:34.570Z,97
2017-10-07T00:36:37.003Z,97
2017-10-07T00:37:39.427Z,97
2017-10-07T00:38:41.853Z,97
2017-10-07T00:39:44.289Z,97
2017-10-07T00:40:46.718Z,97
2017-10-07T00:41:49.148Z,97
2017-10-07T00:42:51.573Z,97
2017-10-07T00:43:53.991Z,97
2017-10-07T00:44:56.433Z,97
2017-10-07T00:45:58.860Z,97
2017-10-07T00:47:01.282Z,97
2017-10-07T00:48:03.699Z,97
2017-10-07T00:49:06.139Z,97
2017-10-07T00:50:08.562Z,97
2017-10-07T00:51:11.000Z,97
2017-10-07T00:52:13.424Z,97
2017-10-07T00:53:15.854Z,97
2017-10-07T00:54:18.286Z,97
2017-10-07T00:55:20.722Z,97
2017-10-07T00:56:23.156Z,97
2017-10-07T00:57:25.579Z,97
2017-10-07T00:58:28.003Z,97
2017-10-07T00:59:30.438Z,97
2017-10-07T01:00:32.881Z,97
2017-10-07T01:01:35.283Z,98
2017-10-07T01:02:37.708Z,98
2017-10-07T01:03:40.136Z,98
2017-10-07T01:04:42.562Z,98
2017-10-07T01:05:44.995Z,98
2017-10-07T01:06:47.423Z,98
2017-10-07T01:07:49.853Z,98
2017-10-07T01:08:52.615Z,98
2017-10-07T01:09:55.041Z,98
2017-10-07T01:10:57.470Z,98
2017-10-07T01:11:59.898Z,98
2017-10-07T01:13:02.325Z,98
2017-10-07T01:14:04.763Z,98
2017-10-07T01:15:07.194Z,98
2017-10-07T01:16:09.632Z,98
2017-10-07T01:17:12.057Z,98
2017-10-07T01:18:14.492Z,98
2017-10-07T01:19:16.914Z,98
2017-10-07T01:20:19.348Z,98
2017-10-07T01:21:21.783Z,98
2017-10-07T01:22:24.566Z,98
2017-10-07T01:23:26.977Z,98
2017-10-07T01:24:29.415Z,98
2017-10-07T01:25:31.846Z,98
2017-10-07T01:26:34.266Z,98
2017-10-07T01:27:36.694Z,98
2017-10-07T01:28:39.117Z,98
2017-10-07T01:29:41.541Z,98
2017-10-07T01:30:43.981Z,99
2017-10-07T01:31:46.409Z,99
2017-10-07T01:32:48.834Z,99
2017-10-07T01:33:51.269Z,99
2017-10-07T01:34:53.702Z,99
2017-10-07T01:35:56.132Z,99
2017-10-07T01:36:58.567Z,99
2017-10-07T01:38:00.994Z,99
2017-10-07T01:39:03.435Z,99
2017-10-07T01:40:05.861Z,99
2017-10-07T01:41:08.635Z,99
2017-10-07T01:42:11.420Z,99
2017-10-07T01:43:13.847Z,99
2017-10-07T01:44:16.280Z,99
2017-10-07T01:45:18.705Z,99
2017-10-07T01:46:21.136Z,99
2017-10-07T01:47:23.555Z,99
2017-10-07T01:48:25.982Z,99
2017-10-07T01:49:28.399Z,99
2017-10-07T01:50:30.839Z,99
2017-10-07T01:51:33.263Z,100
2017-10-07T01:52:35.690Z,100
2017-10-07T01:53:38.117Z,100
2017-10-07T01:54:40.538Z,100
2017-10-07T01:55:42.964Z,100
2017-10-07T01:56:45.774Z,100
2017-10-07T01:57:48.183Z,100
2017-10-07T01:58:50.619Z,100
2017-10-07T01:59:53.045Z,100
2017-10-07T02:00:55.473Z,100
2017-10-07T02:01:57.908Z,100
2017-10-07T02:03:00.343Z,100
2017-10-07T02:04:02.758Z,100
2017-10-07T02:05:05.202Z,100
2017-10-07T02:06:07.624Z,100
2017-10-07T02:07:10.052Z,100
2017-10-07T02:08:12.470Z,100
2017-10-07T02:09:14.902Z,100
2017-10-07T02:10:17.337Z,100
2017-10-07T02:11:19.765Z,100
2017-10-07T02:12:22.196Z,100
2017-10-07T02:13:24.621Z,100
2017-10-07T02:14:27.050Z,100
2017-10-07T02:15:29.495Z,100
2017-10-07T02:16:32.261Z,100
2017-10-07T02:17:34.678Z,100
2017-10-07T02:18:37.111Z,100
2017-10-07T02:19:39.538Z,100
2017-10-07T02:20:41.960Z,100
2017-10-07T02:21:44.397Z,100
2017-10-07T02:22:46.807Z,100
2017-10-07T02:23:49.231Z,100
2017-10-07T02:24:51.663Z,100
2017-10-07T02:25:54.091Z,100
2017-10-07T02:26:56.518Z,100
2017-10-07T02:27:58.946Z,100
2017-10-07T02:29:01.376Z,100
2017-10-07T02:30:03.813Z,100
2017-10-07T02:31:06.253Z,100
2017-10-07T02:32:08.669Z,100
2017-10-07T02:33:11.100Z,100
2017-10-07T02:34:13.536Z,100
2017-10-07T02:35:15.960Z,100
2017-10-07T02:36:18.734Z,100
2017-10-07T02:37:21.169Z,100
2017-10-07T02:38:23.948Z,100
2017-10-07T02:39:26.380Z,100
2017-10-07T02:40:28.820Z,100
2017-10-07T02:41:31.236Z,100
2017-10-07T02:42:34.008Z,100
2017-10-07T02:43:36.432Z,100
2017-10-07T02:44:38.859Z,100
2017-10-07T02:45:41.278Z,100
2017-10-07T02:46:43.712Z,100
2017-10-07T02:47:46.129Z,100
2017-10-07T02:48:48.566Z,100
2017-10-07T02:49:50.992Z,100
2017-10-07T02:50:53.766Z,100
2017-10-07T02:51:56.539Z,100
2017-10-07T02:52:58.961Z,100
2017-10-07T02:54:01.394Z,100
2017-10-07T02:55:03.832Z,100
2017-10-07T02:56:06.254Z,100
2017-10-07T02:57:09.037Z,100
2017-10-07T02:58:11.462Z,100
2017-10-07T02:59:13.892Z,100
2017-10-07T03:00:16.322Z,100
2017-10-07T03:01:18.750Z,100
2017-10-07T03:02:21.168Z,100
2017-10-07T03:03:23.611Z,99
2017-10-07T03:04:26.037Z,99
2017-10-07T03:05:28.452Z,99
2017-10-07T03:06:30.887Z,99
2017-10-07T03:07:33.327Z,99
2017-10-07T03:08:35.758Z,99
2017-10-07T03:09:38.185Z,99
2017-10-07T03:10:40.607Z,99
2017-10-07T03:11:43.032Z,99
2017-10-07T03:12:45.468Z,99
2017-10-07T03:13:47.892Z,99
2017-10-07T03:14:50.311Z,99
2017-10-07T03:15:52.745Z,99
2017-10-07T03:16:55.178Z,99
2017-10-07T03:17:57.607Z,99
2017-10-07T03:19:00.047Z,99
2017-10-07T03:20:02.465Z,99
2017-10-07T03:21:05.229Z,99
2017-10-07T03:22:07.667Z,99
2017-10-07T03:23:10.431Z,99
2017-10-07T03:24:12.863Z,99
2017-10-07T03:25:15.299Z,99
2017-10-07T03:26:17.726Z,99
2017-10-07T03:27:20.169Z,99
2017-10-07T03:28:22.594Z,99
2017-10-07T03:29:25.008Z,99
2017-10-07T03:30:27.796Z,99
2017-10-07T03:31:30.218Z,99
2017-10-07T03:32:33.012Z,99
2017-10-07T03:33:35.446Z,99
2017-10-07T03:34:37.875Z,99
2017-10-07T03:35:40.307Z,99
2017-10-07T03:36:42.727Z,99
2017-10-07T03:37:45.155Z,99
2017-10-07T03:38:47.596Z,99
2017-10-07T03:39:50.021Z,99
2017-10-07T03:40:52.441Z,99
2017-10-07T03:41:54.875Z,99
2017-10-07T03:42:57.295Z,99
2017-10-07T03:43:59.735Z,99
2017-10-07T03:45:02.172Z,99
2017-10-07T03:46:04.588Z,99
2017-10-07T03:47:07.023Z,99
2017-10-07T03:48:09.459Z,99
2017-10-07T03:49:11.884Z,99
2017-10-07T03:50:14.311Z,99
2017-10-07T03:51:17.078Z,99
2017-10-07T03:52:19.508Z,99
2017-10-07T03:53:21.949Z,99
2017-10-07T03:54:24.730Z,99
2017-10-07T03:55:27.146Z,99
2017-10-07T03:56:29.579Z,99
2017-10-07T03:57:32.343Z,99
2017-10-07T03:58:34.765Z,99
2017-10-07T03:59:37.192Z,99
2017-10-07T04:00:39.609Z,99
2017-10-07T04:01:42.034Z,100
2017-10-07T04:02:44.478Z,100
2017-10-07T04:03:46.915Z,100
2017-10-07T04:04:49.333Z,100
2017-10-07T04:05:51.769Z,100
2017-10-07T04:06:54.199Z,100
2017-10-07T04:07:56.637Z,100
2017-10-07T04:08:59.057Z,100
2017-10-07T04:10:01.490Z,100
2017-10-07T04:11:03.905Z,100
2017-10-07T04:12:06.344Z,100
2017-10-07T04:13:09.110Z,100
2017-10-07T04:14:11.536Z,100
2017-10-07T04:15:13.964Z,100
2017-10-07T04:16:16.395Z,100
2017-10-07T04:17:18.818Z,100
2017-10-07T04:18:21.245Z,100
2017-10-07T04:19:23.672Z,100
2017-10-07T04:20:26.454Z,100
2017-10-07T04:21:28.883Z,100
2017-10-07T04:22:31.317Z,100
2017-10-07T04:23:33.741Z,100
2017-10-07T04:24:36.178Z,100
2017-10-07T04:25:38.595Z,100
2017-10-07T04:26:41.038Z,100
2017-10-07T04:27:43.454Z,100
2017-10-07T04:28:45.882Z,100
2017-10-07T04:29:49.008Z,100
2017-10-07T04:30:51.437Z,100
2017-10-07T04:31:53.880Z,100
2017-10-07T04:32:56.314Z,100
2017-10-07T04:33:58.740Z,100
2017-10-07T04:35:01.175Z,100
2017-10-07T04:36:03.597Z,100
2017-10-07T04:37:06.029Z,100
2017-10-07T04:38:08.806Z,100
2017-10-07T04:39:11.578Z,100
2017-10-07T04:40:14.009Z,100
2017-10-07T04:41:16.440Z,100
2017-10-07T04:42:18.865Z,100
2017-10-07T04:43:21.296Z,100
2017-10-07T04:44:23.727Z,100
2017-10-07T04:45:26.143Z,100
2017-10-07T04:46:28.571Z,100
2017-10-07T04:47:31.351Z,100
2017-10-07T04:48:33.778Z,100
2017-10-07T04:49:36.212Z,100
2017-10-07T04:50:38.633Z,100
2017-10-07T04:51:41.055Z,100
2017-10-07T04:52:43.871Z,100
2017-10-07T04:53:46.647Z,100
2017-10-07T04:54:49.060Z,100
2017-10-07T04:55:51.490Z,100
2017-10-07T04:56:53.917Z,100
2017-10-07T04:57:56.339Z,100
2017-10-07T04:58:58.772Z,100
2017-10-07T05:00:01.535Z,100
2017-10-07T05:01:03.958Z,100
2017-10-07T05:02:06.398Z,100
2017-10-07T05:03:08.818Z,100
2017-10-07T05:04:11.246Z,100
2017-10-07T05:05:13.668Z,100
2017-10-07T05:06:16.248Z,100
2017-10-07T05:07:18.662Z,100
2017-10-07T05:08:21.087Z,100
2017-10-07T05:09:23.529Z,100
2017-10-07T05:10:25.955Z,100
2017-10-07T05:11:28.386Z,100
2017-10-07T05:12:30.814Z,100
2017-10-07T05:13:33.244Z,100
2017-10-07T05:14:35.670Z,100
2017-10-07T05:15:38.095Z,100
2017-10-07T05:16:40.510Z,100
2017-10-07T05:17:42.941Z,100
2017-10-07T05:18:45.694Z,100
2017-10-07T05:19:48.124Z,100
2017-10-07T05:20:50.551Z,100
2017-10-07T05:21:52.977Z,100
2017-10-07T05:22:55.401Z,100
2017-10-07T05:23:57.835Z,100
2017-10-07T05:25:00.262Z,100
2017-10-07T05:26:02.704Z,100
2017-10-07T05:27:05.126Z,100
2017-10-07T05:28:07.910Z,100
2017-10-07T05:29:10.334Z,100
2017-10-07T05:30:12.764Z,100
2017-10-07T05:31:15.198Z,100
2017-10-07T05:32:17.615Z,100
2017-10-07T05:33:20.060Z,100
2017-10-07T05:34:22.483Z,100
2017-10-07T05:35:24.906Z,100
2017-10-07T05:36:27.340Z,100
2017-10-07T05:37:29.768Z,100
2017-10-07T05:38:32.202Z,100
2017-10-07T05:39:34.638Z,100
2017-10-07T05:40:37.053Z,100
2017-10-07T05:41:39.490Z,100
2017-10-07T05:42:41.924Z,100
2017-10-07T05:43:44.686Z,100
2017-10-07T05:44:47.114Z,100
2017-10-07T05:45:49.534Z,100
2017-10-07T05:46:51.955Z,100
2017-10-07T05:47:54.380Z,100
2017-10-07T05:48:56.802Z,100
2017-10-07T05:49:59.233Z,100
2017-10-07T05:51:01.665Z,100
2017-10-07T05:52:04.090Z,100
2017-10-07T05:53:06.890Z,100
2017-10-07T05:54:09.315Z,100
2017-10-07T05:55:11.753Z,100
2017-10-07T05:56:14.198Z,100
2017-10-07T05:57:16.600Z,100
2017-10-07T05:58:19.369Z,100
2017-10-07T05:59:21.794Z,100
2017-10-07T06:00:24.210Z,100
2017-10-07T06:01:26.648Z,100
2017-10-07T06:02:29.069Z,100
2017-10-07T06:03:31.493Z,100
2017-10-07T06:04:34.268Z,100
2017-10-07T06:05:36.697Z,100
2017-10-07T06:06:39.452Z,100
2017-10-07T06:07:41.892Z,100
2017-10-07T06:08:44.674Z,100
2017-10-07T06:09:47.096Z,100
2017-10-07T06:10:49.531Z,100
2017-10-07T06:11:51.955Z,100
2017-10-07T06:12:54.725Z,100
2017-10-07T06:13:57.164Z,100
2017-10-07T06:14:59.582Z,100
2017-10-07T06:16:02.019Z,100
2017-10-07T06:17:04.788Z,100
2017-10-07T06:18:07.199Z,100
2017-10-07T06:19:09.634Z,100
2017-10-07T06:20:12.067Z,100
2017-10-07T06:21:14.495Z,100
2017-10-07T06:22:17.079Z,100
2017-10-07T06:23:19.626Z,100
2017-10-07T06:24:22.055Z,100
2017-10-07T06:25:24.501Z,100
2017-10-07T06:26:26.923Z,100
2017-10-07T06:27:29.340Z,100
2017-10-07T06:28:31.770Z,100
2017-10-07T06:29:34.204Z,100
2017-10-07T06:30:36.643Z,100
2017-10-07T06:31:39.079Z,100
2017-10-07T06:32:41.502Z,100
2017-10-07T06:33:43.938Z,100
2017-10-07T06:34:46.731Z,100
2017-10-07T06:35:49.168Z,100
2017-10-07T06:36:51.595Z,100
2017-10-07T06:37:54.021Z,100
2017-10-07T06:38:56.443Z,100
2017-10-07T06:39:58.889Z,100
2017-10-07T06:41:01.311Z,100
2017-10-07T06:42:03.742Z,100
2017-10-07T06:43:06.174Z,100
2017-10-07T06:44:08.604Z,100
2017-10-07T06:45:11.040Z,100
2017-10-07T06:46:13.469Z,100
2017-10-07T06:47:15.908Z,100
2017-10-07T06:48:18.337Z,100
2017-10-07T06:49:20.772Z,100
2017-10-07T06:50:23.211Z,100
2017-10-07T06:51:25.992Z,100
2017-10-07T06:52:28.421Z,100
2017-10-07T06:53:30.852Z,100
2017-10-07T06:54:33.282Z,100
2017-10-07T06:55:36.389Z,100
2017-10-07T06:56:38.820Z,100
2017-10-07T06:57:41.238Z,100
2017-10-07T06:58:43.677Z,100
2017-10-07T06:59:46.109Z,100
2017-10-07T07:00:48.871Z,100
2017-10-07T07:01:51.651Z,100
2017-10-07T07:02:54.085Z,100
2017-10-07T07:03:56.503Z,100
2017-10-07T07:04:58.940Z,100
2017-10-07T07:06:01.722Z,100
2017-10-07T07:07:04.148Z,100
2017-10-07T07:08:06.574Z,100
2017-10-07T07:09:09.011Z,100
2017-10-07T07:10:11.432Z,100
2017-10-07T07:11:13.869Z,100
2017-10-07T07:12:16.318Z,100
2017-10-07T07:13:18.732Z,100
2017-10-07T07:14:21.163Z,100
2017-10-07T07:15:23.600Z,100
2017-10-07T07:16:26.032Z,100
2017-10-07T07:17:28.457Z,100
2017-10-07T07:18:30.892Z,100
2017-10-07T07:19:33.333Z,100
2017-10-07T07:20:35.756Z,100
2017-10-07T07:21:38.185Z,100
2017-10-07T07:22:40.606Z,100
2017-10-07T07:23:43.045Z,100
2017-10-07T07:24:45.814Z,100
2017-10-07T07:25:48.238Z,100
2017-10-07T07:26:50.660Z,100
2017-10-07T07:27:53.429Z,100
2017-10-07T07:28:55.863Z,100
2017-10-07T07:29:58.293Z,100
2017-10-07T07:31:00.722Z,100
2017-10-07T07:32:03.142Z,100
2017-10-07T07:33:05.573Z,100
2017-10-07T07:34:08.004Z,100
2017-10-07T07:35:10.420Z,100
2017-10-07T07:36:12.843Z,99
2017-10-07T07:37:15.280Z,99
2017-10-07T07:38:17.708Z,99
2017-10-07T07:39:20.154Z,99
2017-10-07T07:40:22.585Z,100
2017-10-07T07:41:25.012Z,100
2017-10-07T07:42:27.449Z,100
2017-10-07T07:43:29.880Z,100
2017-10-07T07:44:32.307Z,100
2017-10-07T07:45:34.730Z,100
2017-10-07T07:46:37.156Z,100
2017-10-07T07:47:39.588Z,100
2017-10-07T07:48:42.040Z,100
2017-10-07T07:49:44.460Z,100
2017-10-07T07:50:46.881Z,100
2017-10-07T07:51:49.310Z,99
2017-10-07T07:52:51.735Z,99
2017-10-07T07:53:54.170Z,99
2017-10-07T07:54:56.604Z,99
2017-10-07T07:55:59.370Z,99
2017-10-07T07:57:01.806Z,99
2017-10-07T07:58:04.252Z,99
2017-10-07T07:59:06.676Z,99
2017-10-07T08:00:09.103Z,99
2017-10-07T08:01:11.531Z,98
2017-10-07T08:02:14.294Z,98
2017-10-07T08:03:16.714Z,98
2017-10-07T08:04:19.499Z,98
2017-10-07T08:05:21.927Z,98
2017-10-07T08:06:24.915Z,98
2017-10-07T08:07:27.711Z,98
2017-10-07T08:08:30.122Z,97
2017-10-07T08:09:32.553Z,97
2017-10-07T08:10:34.993Z,98
2017-10-07T08:11:37.415Z,97
2017-10-07T08:12:39.839Z,97
2017-10-07T08:13:42.259Z,97
2017-10-07T08:14:44.697Z,97
2017-10-07T08:15:47.120Z,97
2017-10-07T08:16:49.555Z,97
2017-10-07T08:17:51.986Z,97
2017-10-07T08:18:54.408Z,97
2017-10-07T08:19:56.841Z,96
2017-10-07T08:20:59.271Z,96
2017-10-07T08:22:01.692Z,96
2017-10-07T08:23:04.139Z,96
2017-10-07T08:24:06.560Z,97
2017-10-07T08:25:08.987Z,96
2017-10-07T08:26:11.425Z,97
2017-10-07T08:27:13.850Z,96
2017-10-07T08:28:16.615Z,96
2017-10-07T08:29:19.044Z,96
2017-10-07T08:30:21.464Z,96
2017-10-07T08:31:23.906Z,96
2017-10-07T08:32:26.331Z,95
2017-10-07T08:33:28.759Z,95
2017-10-07T08:34:31.186Z,95
2017-10-07T08:35:33.622Z,95
2017-10-07T08:36:36.393Z,95
2017-10-07T08:37:38.823Z,95
2017-10-07T08:38:41.583Z,95
2017-10-07T08:39:44.010Z,96
2017-10-07T08:40:46.436Z,96
2017-10-07T08:41:48.865Z,96
2017-10-07T08:42:51.288Z,95
2017-10-07T08:43:54.061Z,95
2017-10-07T08:44:56.823Z,95
2017-10-07T08:45:59.255Z,95
2017-10-07T08:47:01.674Z,95
2017-10-07T08:48:04.100Z,95
2017-10-07T08:49:06.527Z,95
2017-10-07T08:50:08.957Z,95
2017-10-07T08:51:11.390Z,95
2017-10-07T08:52:13.829Z,95
2017-10-07T08:53:16.239Z,95
2017-10-07T08:54:18.678Z,94
2017-10-07T08:55:21.109Z,95
2017-10-07T08:56:23.881Z,95
2017-10-07T08:57:26.308Z,95
2017-10-07T08:58:28.723Z,94
2017-10-07T08:59:31.145Z,94
2017-10-07T09:00:33.580Z,94
2017-10-07T09:01:36.009Z,94
2017-10-07T09:02:38.449Z,94
2017-10-07T09:03:40.876Z,93
2017-10-07T09:04:43.293Z,93
2017-10-07T09:05:45.722Z,93
2017-10-07T09:06:48.159Z,93
2017-10-07T09:07:50.925Z,93
2017-10-07T09:08:53.348Z,93
2017-10-07T09:09:56.120Z,94
2017-10-07T09:10:58.550Z,94
2017-10-07T09:12:52.308Z,94
2017-10-07T09:13:54.739Z,94
2017-10-07T09:14:57.165Z,94
2017-10-07T09:15:59.592Z,93
2017-10-07T09:17:02.016Z,93
2017-10-07T09:18:04.455Z,94
2017-10-07T09:19:06.877Z,94
2017-10-07T09:20:09.301Z,94
2017-10-07T09:21:11.739Z,94
2017-10-07T09:22:14.167Z,94
2017-10-07T09:23:16.597Z,95
2017-10-07T09:24:19.024Z,95
2017-10-07T09:25:21.450Z,95
2017-10-07T09:26:23.882Z,95
2017-10-07T09:27:26.326Z,95
2017-10-07T09:28:28.744Z,94
2017-10-07T09:29:31.174Z,94
2017-10-07T09:30:33.609Z,94
2017-10-07T09:31:36.040Z,94
2017-10-07T09:32:38.474Z,94
2017-10-07T09:33:41.120Z,94
2017-10-07T09:34:43.542Z,94
2017-10-07T09:35:46.014Z,95
2017-10-07T09:36:48.784Z,95
2017-10-07T09:37:51.220Z,95
2017-10-07T09:38:53.648Z,95
2017-10-07T09:39:56.076Z,95
2017-10-07T09:40:58.509Z,95
2017-10-07T09:42:00.940Z,95
2017-10-07T09:43:03.714Z,95
2017-10-07T09:44:06.143Z,95
2017-10-07T09:45:08.563Z,96
2017-10-07T09:46:10.992Z,95
2017-10-07T09:47:13.430Z,96
2017-10-07T09:48:15.856Z,96
2017-10-07T09:49:18.290Z,96
2017-10-07T09:50:20.727Z,96
2017-10-07T09:51:23.147Z,96
2017-10-07T09:52:25.587Z,96
2017-10-07T09:53:28.010Z,96
2017-10-07T09:54:30.430Z,96
2017-10-07T09:55:32.862Z,96
2017-10-07T09:56:35.292Z,96
2017-10-07T09:57:37.723Z,96
2017-10-07T09:58:40.158Z,96
2017-10-07T09:59:42.921Z,96
2017-10-07T10:00:45.337Z,96
2017-10-07T10:01:47.771Z,96
2017-10-07T10:02:50.203Z,96
2017-10-07T10:03:52.634Z,96
2017-10-07T10:04:55.050Z,96
2017-10-07T10:05:57.479Z,96
2017-10-07T10:06:59.909Z,97
2017-10-07T10:08:02.348Z,96
2017-10-07T10:09:04.777Z,96
2017-10-07T10:10:07.211Z,96
2017-10-07T10:11:09.639Z,96
2017-10-07T10:12:12.076Z,96
2017-10-07T10:13:14.497Z,96
2017-10-07T10:14:17.257Z,96
2017-10-07T10:15:19.692Z,96
2017-10-07T10:16:22.460Z,96
2017-10-07T10:17:24.881Z,96
2017-10-07T10:18:27.317Z,96
2017-10-07T10:19:30.082Z,96
2017-10-07T10:20:32.511Z,96
2017-10-07T10:21:34.946Z,96
2017-10-07T10:22:37.368Z,96
2017-10-07T10:23:39.792Z,96
2017-10-07T10:24:42.230Z,96
2017-10-07T10:25:44.651Z,96
2017-10-07T10:26:47.455Z,96
2017-10-07T10:27:49.881Z,96
2017-10-07T10:28:52.305Z,96
2017-10-07T10:29:54.736Z,97
2017-10-07T10:30:57.163Z,96
2017-10-07T10:31:59.593Z,96
2017-10-07T10:33:02.017Z,96
2017-10-07T10:34:04.445Z,96
2017-10-07T10:35:06.879Z,96
2017-10-07T10:36:09.309Z,96
2017-10-07T10:37:11.740Z,96
2017-10-07T10:38:14.183Z,96
2017-10-07T10:39:16.620Z,96
2017-10-07T10:40:19.388Z,96
2017-10-07T10:41:21.810Z,96
2017-10-07T10:42:24.240Z,96
2017-10-07T10:43:26.665Z,97
2017-10-07T10:44:29.096Z,97
2017-10-07T10:45:31.864Z,97
2017-10-07T10:46:34.293Z,97
2017-10-07T10:47:36.720Z,97
2017-10-07T10:48:39.140Z,98
2017-10-07T10:49:41.578Z,98
2017-10-07T10:50:44.012Z,98
2017-10-07T10:51:46.432Z,98
2017-10-07T10:52:48.873Z,98
2017-10-07T10:53:51.301Z,98
2017-10-07T10:54:53.725Z,98
2017-10-07T10:55:56.166Z,98
2017-10-07T10:56:58.601Z,98
2017-10-07T10:58:01.361Z,98
2017-10-07T10:59:03.789Z,98
2017-10-07T11:00:06.225Z,98
2017-10-07T11:01:08.649Z,98
2017-10-07T11:02:11.066Z,98
2017-10-07T11:03:13.499Z,98
2017-10-07T11:04:15.923Z,98
2017-10-07T11:05:18.358Z,98
2017-10-07T11:06:20.795Z,98
2017-10-07T11:07:23.561Z,98
2017-10-07T11:08:25.991Z,98
2017-10-07T11:09:28.436Z,99
2017-10-07T11:10:30.853Z,99
2017-10-07T11:11:33.281Z,99
2017-10-07T11:12:35.699Z,99
2017-10-07T11:13:38.127Z,99
2017-10-07T11:14:40.566Z,99
2017-10-07T11:15:42.996Z,99
2017-10-07T11:16:45.409Z,99
2017-10-07T11:17:47.836Z,99
2017-10-07T11:18:50.609Z,99
2017-10-07T11:19:53.040Z,99
2017-10-07T11:20:55.469Z,99
2017-10-07T11:21:57.894Z,99
2017-10-07T11:23:00.321Z,99
2017-10-07T11:24:02.761Z,99
2017-10-07T11:25:05.190Z,99
2017-10-07T11:26:07.963Z,99
2017-10-07T11:27:10.384Z,99
2017-10-07T11:28:12.819Z,99
2017-10-07T11:29:15.246Z,99
2017-10-07T11:30:17.671Z,99
2017-10-07T11:31:20.447Z,99
2017-10-07T11:32:22.880Z,100
2017-10-07T11:33:25.295Z,100
2017-10-07T11:34:27.727Z,100
2017-10-07T11:35:30.166Z,100
2017-10-07T11:36:32.587Z,100
2017-10-07T11:37:35.383Z,100
2017-10-07T11:38:38.501Z,100
2017-10-07T11:39:40.926Z,100
2017-10-07T11:40:43.362Z,100
2017-10-07T11:41:45.793Z,100
2017-10-07T11:42:48.207Z,100
2017-10-07T11:43:50.644Z,100
2017-10-07T11:44:53.067Z,100
2017-10-07T11:45:55.490Z,100
2017-10-07T11:46:57.917Z,100
2017-10-07T11:48:00.335Z,100
2017-10-07T11:49:02.759Z,100
2017-10-07T11:50:05.204Z,100
2017-10-07T11:51:07.620Z,100
2017-10-07T11:52:10.058Z,100
2017-10-07T11:53:12.487Z,100
2017-10-07T11:54:14.917Z,100
2017-10-07T11:55:17.347Z,100
2017-10-07T11:56:19.776Z,100
2017-10-07T11:57:22.193Z,100
2017-10-07T11:58:24.617Z,100
2017-10-07T11:59:27.046Z,100
2017-10-07T12:00:29.483Z,100
2017-10-07T12:01:31.914Z,100
2017-10-07T12:02:34.342Z,100
2017-10-07T12:03:36.776Z,100
2017-10-07T12:04:39.200Z,100
2017-10-07T12:05:41.629Z,100
2017-10-07T12:06:44.049Z,100
2017-10-07T12:07:46.469Z,100
2017-10-07T12:08:48.903Z,100
2017-10-07T12:09:51.330Z,100
2017-10-07T12:10:53.755Z,100
2017-10-07T12:11:56.176Z,100
2017-10-07T12:12:58.953Z,100
2017-10-07T12:14:01.385Z,100
2017-10-07T12:15:03.816Z,100
2017-10-07T12:16:06.234Z,100
2017-10-07T12:17:08.666Z,100
2017-10-07T12:18:11.094Z,100
2017-10-07T12:19:13.532Z,100
2017-10-07T12:20:15.963Z,100
2017-10-07T12:21:18.385Z,100
2017-10-07T12:22:20.808Z,100
2017-10-07T12:23:23.580Z,100
2017-10-07T12:24:26.001Z,100
2017-10-07T12:25:28.426Z,100
2017-10-07T12:26:31.189Z,100
2017-10-07T12:27:33.615Z,100
2017-10-07T12:28:36.041Z,100
2017-10-07T12:29:38.482Z,100
2017-10-07T12:30:41.253Z,100
2017-10-07T12:31:43.688Z,100
2017-10-07T12:32:46.101Z,100
2017-10-07T12:33:48.529Z,100
2017-10-07T12:34:50.963Z,100
2017-10-07T12:35:53.384Z,100
2017-10-07T12:36:56.150Z,100
2017-10-07T12:37:58.583Z,100
2017-10-07T12:39:01.352Z,100
2017-10-07T12:40:03.796Z,100
2017-10-07T12:41:06.561Z,100
2017-10-07T12:42:08.983Z,100
2017-10-07T12:43:11.414Z,100
2017-10-07T12:44:13.843Z,100
2017-10-07T12:45:16.275Z,100
2017-10-07T12:46:18.712Z,100
2017-10-07T12:47:21.132Z,100
2017-10-07T12:48:23.558Z,100
2017-10-07T12:49:26.004Z,100
2017-10-07T12:50:28.416Z,100
2017-10-07T12:51:30.842Z,100
2017-10-07T12:52:33.265Z,100
2017-10-07T12:53:35.691Z,100
2017-10-07T12:54:38.125Z,100
2017-10-07T12:55:40.559Z,100
2017-10-07T12:56:42.979Z,100
2017-10-07T12:57:45.416Z,100
2017-10-07T12:58:48.214Z,100
2017-10-07T12:59:50.996Z,100
2017-10-07T13:00:53.419Z,100
2017-10-07T13:01:55.846Z,100
2017-10-07T13:02:58.274Z,100
2017-10-07T13:04:00.692Z,100
2017-10-07T13:05:03.123Z,100
2017-10-07T13:06:05.549Z,100
2017-10-07T13:07:07.977Z,100
2017-10-07T13:08:10.411Z,100
2017-10-07T13:09:12.844Z,100
2017-10-07T13:10:15.272Z,100
2017-10-07T13:11:17.711Z,100
2017-10-07T13:12:20.133Z,100
2017-10-07T13:13:22.904Z,100
2017-10-07T13:14:25.344Z,100
2017-10-07T13:15:27.760Z,100
2017-10-07T13:16:30.532Z,100
2017-10-07T13:17:32.967Z,100
2017-10-07T13:18:35.396Z,100
2017-10-07T13:19:37.819Z,100
2017-10-07T13:20:40.251Z,100
2017-10-07T13:21:42.668Z,100
2017-10-07T13:22:45.105Z,100
2017-10-07T13:23:47.543Z,100
2017-10-07T13:24:50.366Z,100
2017-10-07T13:25:52.798Z,100
2017-10-07T13:26:55.232Z,100
2017-10-07T13:27:57.998Z,100
2017-10-07T13:29:00.437Z,100
2017-10-07T13:30:02.894Z,100
2017-10-07T13:31:05.319Z,100
2017-10-07T13:32:07.752Z,100
2017-10-07T13:33:10.180Z,100
2017-10-07T13:34:12.614Z,100
2017-10-07T13:35:15.400Z,100
2017-10-07T13:36:17.854Z,100
2017-10-07T13:37:20.272Z,100
2017-10-07T13:38:22.712Z,100
2017-10-07T13:39:25.148Z,100
2017-10-07T13:40:27.569Z,100
2017-10-07T13:41:30.002Z,100
2017-10-07T13:42:32.772Z,100
2017-10-07T13:43:35.200Z,100
2017-10-07T13:44:37.624Z,100
2017-10-07T13:45:40.053Z,100
2017-10-07T13:46:42.478Z,100
2017-10-07T13:47:44.914Z,100
2017-10-07T13:48:47.342Z,100
2017-10-07T13:49:50.113Z,100
2017-10-07T13:50:52.547Z,100
2017-10-07T13:51:54.975Z,100
2017-10-07T13:52:57.414Z,100
2017-10-07T13:53:59.837Z,100
2017-10-07T13:55:02.262Z,100
2017-10-07T13:56:04.699Z,100
2017-10-07T13:57:07.122Z,100
2017-10-07T13:58:09.555Z,100
2017-10-07T13:59:11.974Z,100
2017-10-07T14:00:14.394Z,100
2017-10-07T14:01:17.515Z,100
2017-10-07T14:02:19.943Z,100
2017-10-07T14:03:22.369Z,100
2017-10-07T14:04:24.808Z,100
2017-10-07T14:05:27.230Z,100
2017-10-07T14:06:29.655Z,100
2017-10-07T14:07:32.086Z,100
2017-10-07T14:08:34.855Z,100
2017-10-07T14:09:37.278Z,100
2017-10-07T14:10:39.730Z,100
2017-10-07T14:11:42.141Z,100
2017-10-07T14:12:44.586Z,100
2017-10-07T14:13:47.009Z,100
2017-10-07T14:14:49.426Z,100
2017-10-07T14:15:51.855Z,100
2017-10-07T14:16:54.276Z,100
2017-10-07T14:17:57.072Z,100
2017-10-07T14:18:59.523Z,100
2017-10-07T14:20:01.938Z,100
2017-10-07T14:21:04.371Z,100
2017-10-07T14:22:06.811Z,100
2017-10-07T14:23:09.233Z,100
2017-10-07T14:24:11.671Z,100
2017-10-07T14:25:14.102Z,100
2017-10-07T14:26:16.870Z,100
2017-10-07T14:27:19.646Z,100
2017-10-07T14:28:22.076Z,100
2017-10-07T14:29:24.498Z,100
2017-10-07T14:30:27.629Z,100
2017-10-07T14:31:30.417Z,100
2017-10-07T14:32:32.846Z,100
2017-10-07T14:33:35.277Z,100
2017-10-07T14:34:38.044Z,100